createdAt,value
2019-04-14T00:00:51.380Z,61.10
2019-04-14T00:01:50.163Z,61.21
2019-04-14T00:02:51.169Z,61.13
2019-04-14T00:03:50.204Z,61.24
2019-04-14T00:04:50.757Z,61.13
2019-04-14T00:05:50.077Z,61.72
2019-04-14T00:06:50.476Z,61.21
2019-04-14T00:07:50.041Z,61.10
2019-04-14T00:08:50.227Z,61.41
2019-04-14T00:09:50.069Z,61.90
2019-04-14T00:10:50.775Z,61.59
2019-04-14T00:11:50.458Z,60.56
2019-04-14T00:12:51.296Z,60.46
2019-04-14T00:13:50.249Z,60.66
2019-04-14T00:14:51.208Z,60.66
2019-04-14T00:15:51.751Z,60.32
2019-04-14T00:16:51.032Z,60.87
2019-04-14T00:17:50.355Z,60.04
2019-04-14T00:18:51.169Z,60.22
2019-04-14T00:19:50.227Z,60.35
2019-04-14T00:20:49.906Z,59.83
2019-04-14T00:21:50.130Z,60.04
2019-04-14T00:22:50.946Z,60.53
2019-04-14T00:23:50.175Z,59.80
2019-04-14T00:24:51.010Z,60.04
2019-04-14T00:25:50.092Z,60.22
2019-04-14T00:26:51.015Z,59.63
2019-04-14T00:27:50.050Z,59.80
2019-04-14T00:28:49.825Z,60.46
2019-04-14T00:29:50.307Z,60.77
2019-04-14T00:30:49.804Z,60.56
2019-04-14T00:31:52.128Z,60.46
2019-04-14T00:32:50.830Z,60.66
2019-04-14T00:33:49.955Z,61.10
2019-04-14T00:34:50.812Z,61.07
2019-04-14T00:35:49.754Z,61.49
2019-04-14T00:36:56.865Z,61.41
2019-04-14T00:38:32.308Z,61.10
2019-04-14T00:39:31.594Z,61.59
2019-04-14T00:41:13.712Z,61.18
2019-04-14T00:42:13.005Z,61.28
2019-04-14T00:43:13.516Z,60.89
2019-04-14T00:44:12.987Z,61.93
2019-04-14T00:45:13.327Z,62.79
2019-04-14T00:46:12.967Z,62.55
2019-04-14T00:47:13.540Z,62.14
2019-04-14T00:48:16.150Z,62.04
2019-04-14T00:49:13.945Z,62.24
2019-04-14T00:50:12.915Z,62.35
2019-04-14T00:51:13.404Z,62.55
2019-04-14T00:52:12.966Z,62.14
2019-04-14T00:53:13.916Z,62.87
2019-04-14T00:54:13.253Z,62.04
2019-04-14T00:55:13.918Z,62.66
2019-04-14T00:56:12.924Z,62.11
2019-04-14T00:57:13.683Z,62.24
2019-04-14T00:58:12.867Z,62.32
2019-04-14T00:59:13.624Z,62.87
2019-04-14T01:00:15.771Z,62.14
2019-04-14T01:01:13.304Z,62.55
2019-04-14T01:02:12.783Z,62.21
2019-04-14T01:03:13.426Z,62.45
2019-04-14T01:04:12.772Z,62.35
2019-04-14T01:05:13.124Z,62.76
2019-04-14T01:06:12.739Z,62.87
2019-04-14T01:07:13.077Z,63.17
2019-04-14T01:08:13.853Z,63.17
2019-04-14T01:09:13.065Z,63.28
2019-04-14T01:10:12.758Z,63.25
2019-04-14T01:11:13.787Z,63.59
2019-04-14T01:12:12.839Z,63.46
2019-04-14T01:13:14.117Z,63.15
2019-04-14T01:14:12.677Z,63.15
2019-04-14T01:15:13.681Z,63.66
2019-04-14T01:16:18.391Z,63.66
2019-04-14T01:17:13.617Z,63.87
2019-04-14T01:18:12.656Z,63.97
2019-04-14T01:19:13.372Z,63.97
2019-04-14T01:20:12.577Z,64.31
2019-04-14T01:21:13.152Z,64.59
2019-04-14T01:22:12.561Z,64.70
2019-04-14T01:23:12.965Z,64.83
2019-04-14T01:24:12.541Z,64.83
2019-04-14T01:25:12.867Z,65.84
2019-04-14T01:26:13.784Z,65.56
2019-04-14T01:27:12.526Z,65.77
2019-04-14T01:28:13.636Z,65.94
2019-04-14T01:29:12.484Z,66.38
2019-04-14T01:30:13.349Z,66.25
2019-04-14T01:31:12.459Z,66.05
2019-04-14T01:32:13.302Z,66.77
2019-04-14T01:33:12.445Z,66.66
2019-04-14T01:34:12.968Z,67.32
2019-04-14T01:35:12.413Z,68.04
2019-04-14T01:36:12.755Z,67.94
2019-04-14T01:37:13.634Z,68.38
2019-04-14T01:38:12.591Z,69.08
2019-04-14T01:39:13.297Z,69.11
2019-04-14T01:40:12.361Z,69.08
2019-04-14T01:41:12.816Z,69.11
2019-04-14T01:42:12.336Z,70.04
2019-04-14T01:43:12.411Z,70.46
2019-04-14T01:44:13.263Z,70.46
2019-04-14T01:45:12.305Z,70.76
2019-04-14T01:46:19.696Z,70.97
2019-04-14T01:47:13.768Z,70.76
2019-04-14T01:48:12.729Z,70.84
2019-04-14T01:49:12.261Z,70.97
2019-04-14T01:50:12.770Z,70.97
2019-04-14T01:51:13.308Z,71.18
2019-04-14T01:52:12.453Z,71.18
2019-04-14T01:53:12.233Z,71.59
2019-04-14T01:54:12.739Z,71.70
2019-04-14T01:55:13.273Z,72.53
2019-04-14T01:56:12.362Z,72.11
2019-04-14T01:57:13.205Z,72.53
2019-04-14T01:58:12.310Z,72.53
2019-04-14T01:59:13.005Z,72.22
2019-04-14T02:00:12.153Z,72.67
2019-04-14T02:01:12.725Z,72.77
2019-04-14T02:02:12.117Z,72.56
2019-04-14T02:03:12.784Z,72.56
2019-04-14T02:04:12.095Z,72.53
2019-04-14T02:05:12.383Z,73.05
2019-04-14T02:06:12.080Z,72.84
2019-04-14T02:07:12.380Z,73.25
2019-04-14T02:08:13.205Z,73.05
2019-04-14T02:09:12.200Z,73.15
2019-04-14T02:10:12.876Z,73.49
2019-04-14T02:11:12.025Z,73.39
2019-04-14T02:12:12.773Z,73.49
2019-04-14T02:13:12.004Z,74.11
2019-04-14T02:14:12.515Z,74.32
2019-04-14T02:15:13.284Z,73.91
2019-04-14T02:16:22.940Z,74.74
2019-04-14T02:17:13.259Z,74.74
2019-04-14T02:18:12.162Z,74.95
2019-04-14T02:19:13.111Z,75.26
2019-04-14T02:20:12.128Z,75.05
2019-04-14T02:21:12.861Z,74.84
2019-04-14T02:22:11.904Z,75.05
2019-04-14T02:23:12.563Z,74.63
2019-04-14T02:24:11.888Z,75.26
2019-04-14T02:25:12.100Z,75.57
2019-04-14T02:26:13.178Z,75.26
2019-04-14T02:27:12.116Z,75.36
2019-04-14T02:28:11.839Z,75.46
2019-04-14T02:29:12.166Z,75.57
2019-04-14T02:30:15.861Z,75.67
2019-04-14T02:31:30.081Z,76.09
2019-04-14T02:33:50.313Z,76.23
2019-04-14T02:34:39.168Z,76.40
2019-04-14T02:36:41.554Z,76.61
2019-04-14T02:37:49.337Z,76.75
2019-04-14T02:39:42.121Z,77.37
2019-04-14T02:41:52.928Z,77.44
2019-04-14T02:42:42.030Z,77.47
2019-04-14T02:43:58.034Z,77.64
2019-04-14T02:44:44.259Z,77.54
2019-04-14T02:45:46.714Z,77.33
2019-04-14T02:47:53.812Z,77.33
2019-04-14T02:48:44.861Z,77.37
2019-04-14T02:51:48.454Z,77.58
2019-04-14T02:52:46.908Z,78.09
2019-04-14T02:55:43.179Z,77.75
2019-04-14T02:56:40.844Z,77.99
2019-04-14T02:57:41.616Z,77.95
2019-04-14T02:59:37.092Z,77.95
2019-04-14T03:00:41.744Z,77.89
2019-04-14T03:01:45.092Z,78.41
2019-04-14T03:02:36.782Z,78.82
2019-04-14T03:03:39.233Z,79.44
2019-04-14T03:04:44.830Z,79.24
2019-04-14T03:05:47.832Z,79.44
2019-04-14T03:06:33.527Z,79.24
2019-04-14T03:07:38.224Z,79.79
2019-04-14T03:08:45.710Z,79.79
2019-04-14T03:11:44.518Z,79.38
2019-04-14T03:12:38.459Z,79.27
2019-04-14T03:13:45.077Z,80.00
2019-04-14T03:14:39.438Z,80.31
2019-04-14T03:15:39.711Z,79.79
2019-04-14T03:16:43.778Z,79.79
2019-04-14T03:17:43.331Z,80.52
2019-04-14T03:18:39.516Z,80.62
2019-04-14T03:19:43.950Z,80.00
2019-04-14T03:20:32.323Z,80.31
2019-04-14T03:21:34.688Z,80.31
2019-04-14T03:22:51.819Z,80.62
2019-04-14T03:23:46.378Z,80.83
2019-04-14T03:24:34.142Z,80.62
2019-04-14T03:25:29.637Z,80.62
2019-04-14T03:26:38.800Z,79.90
2019-04-14T03:27:45.801Z,80.52
2019-04-14T03:28:38.688Z,80.41
2019-04-14T03:29:37.181Z,80.41
2019-04-14T03:30:57.620Z,80.41
2019-04-14T03:34:11.088Z,81.04
2019-04-14T03:34:43.522Z,81.28
2019-04-14T03:37:45.591Z,81.38
2019-04-14T03:38:37.012Z,82.01
2019-04-14T03:39:40.533Z,81.70
2019-04-14T03:41:40.919Z,81.59
2019-04-14T03:42:49.310Z,81.80
2019-04-14T03:44:41.397Z,81.80
2019-04-14T03:45:46.793Z,81.49
2019-04-14T03:46:41.616Z,81.80
2019-04-14T03:47:31.439Z,81.90
2019-04-14T03:49:42.910Z,82.32
2019-04-14T03:50:39.349Z,81.35
2019-04-14T03:53:34.682Z,81.66
2019-04-14T03:54:33.163Z,81.35
2019-04-14T03:55:25.096Z,81.20
2019-04-14T03:56:14.403Z,80.68
2019-04-14T03:57:10.857Z,80.47
2019-04-14T03:58:13.048Z,80.37
2019-04-14T03:59:10.842Z,80.62
2019-04-14T04:00:11.722Z,80.31
2019-04-14T04:01:10.814Z,80.93
2019-04-14T04:02:11.799Z,80.83
2019-04-14T04:03:10.792Z,81.04
2019-04-14T04:04:11.844Z,81.35
2019-04-14T04:05:10.774Z,81.35
2019-04-14T04:06:11.800Z,81.38
2019-04-14T04:07:10.751Z,81.70
2019-04-14T04:08:11.479Z,82.11
2019-04-14T04:09:10.732Z,81.28
2019-04-14T04:10:11.438Z,81.80
2019-04-14T04:11:10.715Z,81.35
2019-04-14T04:12:11.693Z,81.76
2019-04-14T04:13:10.686Z,81.14
2019-04-14T04:14:11.722Z,80.93
2019-04-14T04:15:10.663Z,81.04
2019-04-14T04:16:11.535Z,81.35
2019-04-14T04:17:10.642Z,81.24
2019-04-14T04:18:11.311Z,81.24
2019-04-14T04:19:13.589Z,80.99
2019-04-14T04:20:11.034Z,80.93
2019-04-14T04:21:11.655Z,80.73
2019-04-14T04:22:10.655Z,81.10
2019-04-14T04:23:11.737Z,80.73
2019-04-14T04:24:10.779Z,80.79
2019-04-14T04:25:11.583Z,80.83
2019-04-14T04:26:10.540Z,80.73
2019-04-14T04:27:11.096Z,80.83
2019-04-14T04:28:10.531Z,81.24
2019-04-14T04:29:11.211Z,81.04
2019-04-14T04:30:10.498Z,81.24
2019-04-14T04:31:10.994Z,81.24
2019-04-14T04:32:10.471Z,81.04
2019-04-14T04:33:10.918Z,81.24
2019-04-14T04:34:10.447Z,81.56
2019-04-14T04:35:10.783Z,81.24
2019-04-14T04:36:11.691Z,81.04
2019-04-14T04:37:10.448Z,81.45
2019-04-14T04:38:11.642Z,81.56
2019-04-14T04:39:10.396Z,82.07
2019-04-14T04:40:11.451Z,81.45
2019-04-14T04:41:10.373Z,81.66
2019-04-14T04:42:11.252Z,81.97
2019-04-14T04:43:10.404Z,81.87
2019-04-14T04:44:11.489Z,81.56
2019-04-14T04:45:10.441Z,81.87
2019-04-14T04:46:11.323Z,82.11
2019-04-14T04:47:10.311Z,82.01
2019-04-14T04:48:10.915Z,82.42
2019-04-14T04:49:16.494Z,81.97
2019-04-14T04:50:11.274Z,82.11
2019-04-14T04:51:10.264Z,82.11
2019-04-14T04:52:12.651Z,81.80
2019-04-14T04:53:11.269Z,81.80
2019-04-14T04:54:10.351Z,81.90
2019-04-14T04:55:11.248Z,82.32
2019-04-14T04:56:10.212Z,82.94
2019-04-14T04:57:11.270Z,82.56
2019-04-14T04:58:10.186Z,82.56
2019-04-14T04:59:10.185Z,83.15
2019-04-14T05:00:11.311Z,83.67
2019-04-14T05:01:10.157Z,83.25
2019-04-14T05:02:11.256Z,82.73
2019-04-14T05:03:10.133Z,83.04
2019-04-14T05:04:11.097Z,83.36
2019-04-14T05:05:10.109Z,83.25
2019-04-14T05:06:11.251Z,83.67
2019-04-14T05:07:10.091Z,83.56
2019-04-14T05:08:10.847Z,83.25
2019-04-14T05:09:10.080Z,83.25
2019-04-14T05:10:10.986Z,83.98
2019-04-14T05:11:10.047Z,83.46
2019-04-14T05:12:11.009Z,82.94
2019-04-14T05:13:10.025Z,82.73
2019-04-14T05:14:10.910Z,84.19
2019-04-14T05:15:10.001Z,83.56
2019-04-14T05:16:10.692Z,83.25
2019-04-14T05:17:10.221Z,84.08
2019-04-14T05:18:11.210Z,84.08
2019-04-14T05:19:18.548Z,83.04
2019-04-14T05:20:11.620Z,82.94
2019-04-14T05:21:10.386Z,83.25
2019-04-14T05:22:09.927Z,83.15
2019-04-14T05:23:10.208Z,84.60
2019-04-14T05:24:09.905Z,84.70
2019-04-14T05:25:10.129Z,83.36
2019-04-14T05:26:09.877Z,83.04
2019-04-14T05:27:10.034Z,84.50
2019-04-14T05:28:11.169Z,83.36
2019-04-14T05:29:10.039Z,84.60
2019-04-14T05:30:11.058Z,83.87
2019-04-14T05:31:09.875Z,84.95
2019-04-14T05:32:10.862Z,84.70
2019-04-14T05:33:09.805Z,84.29
2019-04-14T05:34:10.773Z,84.53
2019-04-14T05:35:09.802Z,84.95
2019-04-14T05:36:10.674Z,84.64
2019-04-14T05:37:09.757Z,85.22
2019-04-14T05:38:10.524Z,85.22
2019-04-14T05:39:09.744Z,85.12
2019-04-14T05:40:10.318Z,86.05
2019-04-14T05:41:09.717Z,84.91
2019-04-14T05:42:14.851Z,84.08
2019-04-14T05:43:11.357Z,84.81
2019-04-14T05:44:09.986Z,84.29
2019-04-14T05:45:09.671Z,84.22
2019-04-14T05:46:09.947Z,85.26
2019-04-14T05:47:09.660Z,84.95
2019-04-14T05:48:09.806Z,86.19
2019-04-14T05:49:09.985Z,86.51
2019-04-14T05:50:09.643Z,86.30
2019-04-14T05:51:10.906Z,85.47
2019-04-14T05:52:09.912Z,85.26
2019-04-14T05:53:09.585Z,85.78
2019-04-14T05:54:09.973Z,86.19
2019-04-14T05:55:09.567Z,86.30
2019-04-14T05:56:09.954Z,87.24
2019-04-14T05:57:09.541Z,86.72
2019-04-14T05:58:10.028Z,86.05
2019-04-14T05:59:09.530Z,85.99
2019-04-14T06:00:10.345Z,86.09
2019-04-14T06:01:09.496Z,86.19
2019-04-14T06:02:09.484Z,86.72
2019-04-14T06:03:10.319Z,86.47
2019-04-14T06:04:09.463Z,86.88
2019-04-14T06:05:11.289Z,86.51
2019-04-14T06:06:09.437Z,85.47
2019-04-14T06:07:09.431Z,85.26
2019-04-14T06:08:09.419Z,86.09
2019-04-14T06:09:09.401Z,85.78
2019-04-14T06:10:09.395Z,86.19
2019-04-14T06:11:09.387Z,86.82
2019-04-14T06:12:09.378Z,86.44
2019-04-14T06:13:11.673Z,86.30
2019-04-14T06:14:09.352Z,86.82
2019-04-14T06:15:09.345Z,86.41
2019-04-14T06:16:09.337Z,86.51
2019-04-14T06:17:09.320Z,86.51
2019-04-14T06:18:09.313Z,86.55
2019-04-14T06:19:09.299Z,86.76
2019-04-14T06:20:09.292Z,86.86
2019-04-14T06:21:09.276Z,86.44
2019-04-14T06:22:09.266Z,86.65
2019-04-14T06:23:09.261Z,86.44
2019-04-14T06:24:09.241Z,86.44
2019-04-14T06:25:09.239Z,86.34
2019-04-14T06:26:09.221Z,86.76
2019-04-14T06:27:09.217Z,86.65
2019-04-14T06:28:09.197Z,87.13
2019-04-14T06:29:09.197Z,86.76
2019-04-14T06:30:09.177Z,86.44
2019-04-14T06:31:09.171Z,86.51
2019-04-14T06:32:09.155Z,86.41
2019-04-14T06:33:09.150Z,86.86
2019-04-14T06:34:09.133Z,86.55
2019-04-14T06:35:09.135Z,87.27
2019-04-14T06:36:09.111Z,86.61
2019-04-14T06:37:09.096Z,87.13
2019-04-14T06:38:09.095Z,86.76
2019-04-14T06:39:09.080Z,86.96
2019-04-14T06:40:09.076Z,87.59
2019-04-14T06:41:09.055Z,88.00
2019-04-14T06:42:09.047Z,87.55
2019-04-14T06:43:11.633Z,88.17
2019-04-14T06:44:09.025Z,89.11
2019-04-14T06:45:09.014Z,88.79
2019-04-14T06:46:09.003Z,88.13
2019-04-14T06:47:08.986Z,86.61
2019-04-14T06:48:08.976Z,86.26
2019-04-14T06:49:08.972Z,86.05
2019-04-14T06:50:08.957Z,86.72
2019-04-14T06:51:08.953Z,86.57
2019-04-14T06:52:08.935Z,86.93
2019-04-14T06:53:08.922Z,86.72
2019-04-14T06:54:08.911Z,87.13
2019-04-14T06:55:08.902Z,88.21
2019-04-14T06:56:08.894Z,87.96
2019-04-14T06:57:08.882Z,88.79
2019-04-14T06:58:08.873Z,88.07
2019-04-14T06:59:08.868Z,89.00
2019-04-14T07:00:08.852Z,89.00
2019-04-14T07:01:08.838Z,88.59
2019-04-14T07:02:08.827Z,88.13
2019-04-14T07:03:08.817Z,88.90
2019-04-14T07:04:08.805Z,88.17
2019-04-14T07:05:08.789Z,88.17
2019-04-14T07:06:08.784Z,88.75
2019-04-14T07:07:08.776Z,88.13
2019-04-14T07:08:08.766Z,88.02
2019-04-14T07:09:08.746Z,87.71
2019-04-14T07:10:08.740Z,87.71
2019-04-14T07:11:08.731Z,87.51
2019-04-14T07:12:08.831Z,88.23
2019-04-14T07:13:08.705Z,88.85
2019-04-14T07:14:08.705Z,87.92
2019-04-14T07:15:08.683Z,87.82
2019-04-14T07:16:08.671Z,87.82
2019-04-14T07:17:08.662Z,87.51
2019-04-14T07:18:08.659Z,88.13
2019-04-14T07:19:08.647Z,87.92
2019-04-14T07:20:08.631Z,88.34
2019-04-14T07:21:08.616Z,88.65
2019-04-14T07:22:08.611Z,88.54
2019-04-14T07:23:08.592Z,88.23
2019-04-14T07:24:08.586Z,88.51
2019-04-14T07:25:08.573Z,88.51
2019-04-14T07:26:08.566Z,87.99
2019-04-14T07:27:08.552Z,87.88
2019-04-14T07:28:08.536Z,88.30
2019-04-14T07:29:08.528Z,87.99
2019-04-14T07:30:08.518Z,88.51
2019-04-14T07:31:08.514Z,88.51
2019-04-14T07:32:08.500Z,88.92
2019-04-14T07:33:08.491Z,88.05
2019-04-14T07:34:08.472Z,88.51
2019-04-14T07:35:08.466Z,87.88
2019-04-14T07:36:08.462Z,87.88
2019-04-14T07:37:08.463Z,87.12
2019-04-14T07:38:08.431Z,87.95
2019-04-14T07:39:08.416Z,88.09
2019-04-14T07:40:08.410Z,87.12
2019-04-14T07:41:08.396Z,88.26
2019-04-14T07:42:08.388Z,87.43
2019-04-14T07:43:08.373Z,87.84
2019-04-14T07:44:08.370Z,88.15
2019-04-14T07:45:08.356Z,88.46
2019-04-14T07:46:08.347Z,88.88
2019-04-14T07:47:08.332Z,88.46
2019-04-14T07:48:08.316Z,87.84
2019-04-14T07:49:08.313Z,88.15
2019-04-14T07:50:14.484Z,88.05
2019-04-14T07:51:09.290Z,87.95
2019-04-14T07:52:08.275Z,88.67
2019-04-14T07:53:08.268Z,87.07
2019-04-14T07:54:08.256Z,87.12
2019-04-14T07:55:08.283Z,86.80
2019-04-14T07:56:08.239Z,86.87
2019-04-14T07:57:08.229Z,87.01
2019-04-14T07:58:08.205Z,87.07
2019-04-14T07:59:08.204Z,87.12
2019-04-14T08:00:08.188Z,87.32
2019-04-14T08:01:08.182Z,88.21
2019-04-14T08:02:08.163Z,88.21
2019-04-14T08:03:08.157Z,87.90
2019-04-14T08:04:08.142Z,86.97
2019-04-14T08:05:08.137Z,86.76
2019-04-14T08:06:08.122Z,85.94
2019-04-14T08:07:08.115Z,86.55
2019-04-14T08:08:08.113Z,87.07
2019-04-14T08:09:08.090Z,87.07
2019-04-14T08:10:08.108Z,87.49
2019-04-14T08:11:08.089Z,87.07
2019-04-14T08:12:08.059Z,86.55
2019-04-14T08:13:08.045Z,86.66
2019-04-14T08:14:08.038Z,86.80
2019-04-14T08:15:08.112Z,87.12
2019-04-14T08:16:08.011Z,87.22
2019-04-14T08:17:08.001Z,88.26
2019-04-14T08:18:07.992Z,88.88
2019-04-14T08:19:08.001Z,88.46
2019-04-14T08:20:07.973Z,88.53
2019-04-14T08:21:07.958Z,87.90
2019-04-14T08:22:07.956Z,88.21
2019-04-14T08:23:07.940Z,88.11
2019-04-14T08:24:07.924Z,88.21
2019-04-14T08:25:07.921Z,88.11
2019-04-14T08:26:07.908Z,88.21
2019-04-14T08:27:07.892Z,87.80
2019-04-14T08:28:07.885Z,88.39
2019-04-14T08:29:07.875Z,88.32
2019-04-14T08:30:07.870Z,88.07
2019-04-14T08:31:07.850Z,88.21
2019-04-14T08:32:07.838Z,88.21
2019-04-14T08:33:07.825Z,88.59
2019-04-14T08:34:07.836Z,89.11
2019-04-14T08:35:07.866Z,88.39
2019-04-14T08:36:07.795Z,87.97
2019-04-14T08:37:07.782Z,88.18
2019-04-14T08:38:07.769Z,88.07
2019-04-14T08:39:07.758Z,87.66
2019-04-14T08:40:07.750Z,87.66
2019-04-14T08:41:07.750Z,88.48
2019-04-14T08:42:07.728Z,88.07
2019-04-14T08:43:07.727Z,88.79
2019-04-14T08:44:07.710Z,87.66
2019-04-14T08:45:07.699Z,88.59
2019-04-14T08:46:07.686Z,88.42
2019-04-14T08:47:07.675Z,88.18
2019-04-14T08:48:07.658Z,88.07
2019-04-14T08:49:07.648Z,87.87
2019-04-14T08:50:07.646Z,88.28
2019-04-14T08:51:07.631Z,88.59
2019-04-14T08:52:07.650Z,87.97
2019-04-14T08:53:07.604Z,88.18
2019-04-14T08:54:07.600Z,87.76
2019-04-14T08:55:07.576Z,88.18
2019-04-14T08:56:07.577Z,88.45
2019-04-14T08:57:07.560Z,88.13
2019-04-14T08:58:07.550Z,88.03
2019-04-14T08:59:07.560Z,88.03
2019-04-14T09:00:07.529Z,88.34
2019-04-14T09:01:07.521Z,88.34
2019-04-14T09:02:07.509Z,87.62
2019-04-14T09:03:07.506Z,88.13
2019-04-14T09:04:07.540Z,86.99
2019-04-14T09:05:07.479Z,87.20
2019-04-14T09:06:07.461Z,87.37
2019-04-14T09:07:07.454Z,88.30
2019-04-14T09:08:07.444Z,88.09
2019-04-14T09:09:07.561Z,87.27
2019-04-14T09:10:07.411Z,86.33
2019-04-14T09:11:07.429Z,86.33
2019-04-14T09:12:15.513Z,86.13
2019-04-14T09:13:08.377Z,86.23
2019-04-14T09:14:07.365Z,86.65
2019-04-14T09:15:07.361Z,85.99
2019-04-14T09:16:07.349Z,86.09
2019-04-14T09:17:07.337Z,86.65
2019-04-14T09:18:07.324Z,86.19
2019-04-14T09:19:08.106Z,86.33
2019-04-14T09:20:07.301Z,86.40
2019-04-14T09:21:07.289Z,86.19
2019-04-14T09:22:07.281Z,86.19
2019-04-14T09:23:07.266Z,86.09
2019-04-14T09:24:07.270Z,86.19
2019-04-14T09:25:07.243Z,85.57
2019-04-14T09:26:07.235Z,85.78
2019-04-14T09:27:07.228Z,84.12
2019-04-14T09:28:07.217Z,84.12
2019-04-14T09:29:07.200Z,84.84
2019-04-14T09:30:07.195Z,84.74
2019-04-14T09:31:07.178Z,84.84
2019-04-14T09:32:07.174Z,85.78
2019-04-14T09:33:07.157Z,85.68
2019-04-14T09:34:07.145Z,85.78
2019-04-14T09:35:07.142Z,85.88
2019-04-14T09:36:07.168Z,85.88
2019-04-14T09:37:07.111Z,86.19
2019-04-14T09:38:07.100Z,85.99
2019-04-14T09:39:07.133Z,84.74
2019-04-14T09:40:07.087Z,85.05
2019-04-14T09:41:07.097Z,85.99
2019-04-14T09:42:07.058Z,85.26
2019-04-14T09:43:07.046Z,84.81
2019-04-14T09:44:07.032Z,83.91
2019-04-14T09:45:07.028Z,83.91
2019-04-14T09:46:07.018Z,84.19
2019-04-14T09:47:07.002Z,83.87
2019-04-14T09:48:06.988Z,84.95
2019-04-14T09:49:06.976Z,85.94
2019-04-14T09:50:06.980Z,85.05
2019-04-14T09:51:06.958Z,83.91
2019-04-14T09:52:06.947Z,84.74
2019-04-14T09:53:06.939Z,84.74
2019-04-14T09:54:06.926Z,84.81
2019-04-14T09:55:06.913Z,84.74
2019-04-14T09:56:06.897Z,85.02
2019-04-14T09:57:06.900Z,84.84
2019-04-14T09:58:06.879Z,84.01
2019-04-14T09:59:06.864Z,84.70
2019-04-14T10:00:06.859Z,83.91
2019-04-14T10:01:09.056Z,84.39
2019-04-14T10:02:06.883Z,84.29
2019-04-14T10:03:06.820Z,84.39
2019-04-14T10:04:06.870Z,83.36
2019-04-14T10:05:06.799Z,84.08
2019-04-14T10:06:06.795Z,84.19
2019-04-14T10:07:06.777Z,84.08
2019-04-14T10:08:06.771Z,84.45
2019-04-14T10:09:06.753Z,85.02
2019-04-14T10:10:06.739Z,85.94
2019-04-14T10:11:06.744Z,84.05
2019-04-14T10:12:06.726Z,83.46
2019-04-14T10:13:06.717Z,83.46
2019-04-14T10:14:06.696Z,83.25
2019-04-14T10:15:06.691Z,83.56
2019-04-14T10:16:06.673Z,84.29
2019-04-14T10:17:06.666Z,84.19
2019-04-14T10:18:06.653Z,84.15
2019-04-14T10:19:06.642Z,85.18
2019-04-14T10:20:06.627Z,84.66
2019-04-14T10:21:16.797Z,83.42
2019-04-14T10:22:07.614Z,83.84
2019-04-14T10:23:06.599Z,83.63
2019-04-14T10:24:06.587Z,84.25
2019-04-14T10:25:06.579Z,83.11
2019-04-14T10:26:06.564Z,83.32
2019-04-14T10:27:06.559Z,84.05
2019-04-14T10:28:06.539Z,84.39
2019-04-14T10:29:06.533Z,83.84
2019-04-14T10:30:06.519Z,83.67
2019-04-14T10:31:06.509Z,83.87
2019-04-14T10:32:06.497Z,84.29
2019-04-14T10:33:06.482Z,83.98
2019-04-14T10:34:06.473Z,84.81
2019-04-14T10:35:06.472Z,83.98
2019-04-14T10:36:06.458Z,84.50
2019-04-14T10:37:06.453Z,86.05
2019-04-14T10:38:06.429Z,85.74
2019-04-14T10:39:06.417Z,85.74
2019-04-14T10:40:06.414Z,84.81
2019-04-14T10:41:06.412Z,85.42
2019-04-14T10:42:06.395Z,85.80
2019-04-14T10:43:06.375Z,86.11
2019-04-14T10:44:06.369Z,85.70
2019-04-14T10:45:06.353Z,84.70
2019-04-14T10:46:06.406Z,84.77
2019-04-14T10:47:06.330Z,84.56
2019-04-14T10:48:06.344Z,84.77
2019-04-14T10:49:06.305Z,84.77
2019-04-14T10:50:06.301Z,85.80
2019-04-14T10:51:06.285Z,83.73
2019-04-14T10:52:06.359Z,84.05
2019-04-14T10:53:06.263Z,84.36
2019-04-14T10:54:06.249Z,83.84
2019-04-14T10:55:06.250Z,84.83
2019-04-14T10:56:06.229Z,84.73
2019-04-14T10:57:06.221Z,84.77
2019-04-14T10:58:06.211Z,84.63
2019-04-14T10:59:06.195Z,85.91
2019-04-14T11:00:06.183Z,85.66
2019-04-14T11:01:06.175Z,85.97
2019-04-14T11:02:06.171Z,84.79
2019-04-14T11:03:06.151Z,84.79
2019-04-14T11:04:08.006Z,84.89
2019-04-14T11:05:06.128Z,83.86
2019-04-14T11:06:06.129Z,83.97
2019-04-14T11:07:06.113Z,83.45
2019-04-14T11:08:06.098Z,83.65
2019-04-14T11:09:06.083Z,84.07
2019-04-14T11:10:06.067Z,83.65
2019-04-14T11:11:06.065Z,84.07
2019-04-14T11:12:06.046Z,84.79
2019-04-14T11:13:06.038Z,84.07
2019-04-14T11:14:06.025Z,83.31
2019-04-14T11:15:06.018Z,83.51
2019-04-14T11:16:06.012Z,83.25
2019-04-14T11:17:06.003Z,83.62
2019-04-14T11:18:05.995Z,83.93
2019-04-14T11:19:05.966Z,82.89
2019-04-14T11:20:05.961Z,82.59
2019-04-14T11:21:05.949Z,83.51
2019-04-14T11:22:05.948Z,83.51
2019-04-14T11:23:05.945Z,83.93
2019-04-14T11:24:05.932Z,84.23
2019-04-14T11:25:05.913Z,82.79
2019-04-14T11:26:05.914Z,82.17
2019-04-14T11:27:05.888Z,82.14
2019-04-14T11:28:05.873Z,82.86
2019-04-14T11:29:05.866Z,82.45
2019-04-14T11:30:05.853Z,82.65
2019-04-14T11:31:05.850Z,82.61
2019-04-14T11:32:05.836Z,81.79
2019-04-14T11:33:05.815Z,82.20
2019-04-14T11:34:05.808Z,81.17
2019-04-14T11:35:05.795Z,81.37
2019-04-14T11:36:05.791Z,81.27
2019-04-14T11:37:05.772Z,81.17
2019-04-14T11:38:05.778Z,81.17
2019-04-14T11:39:05.751Z,81.27
2019-04-14T11:40:05.746Z,81.34
2019-04-14T11:41:05.763Z,81.68
2019-04-14T11:42:05.723Z,81.48
2019-04-14T11:43:05.713Z,81.99
2019-04-14T11:44:05.693Z,81.44
2019-04-14T11:45:05.699Z,81.27
2019-04-14T11:46:05.689Z,81.34
2019-04-14T11:47:05.687Z,81.23
2019-04-14T11:48:05.656Z,81.65
2019-04-14T11:49:05.658Z,80.93
2019-04-14T11:50:05.642Z,80.82
2019-04-14T11:51:05.627Z,80.72
2019-04-14T11:52:05.605Z,80.10
2019-04-14T11:53:05.613Z,80.41
2019-04-14T11:54:05.592Z,79.90
2019-04-14T11:55:05.579Z,80.51
2019-04-14T11:56:05.563Z,79.27
2019-04-14T11:57:05.554Z,79.44
2019-04-14T11:58:05.546Z,79.14
2019-04-14T11:59:05.524Z,79.14
2019-04-14T12:00:05.527Z,79.58
2019-04-14T12:01:05.512Z,79.69
2019-04-14T12:02:05.507Z,79.34
2019-04-14T12:03:05.485Z,78.62
2019-04-14T12:04:05.484Z,78.83
2019-04-14T12:05:05.477Z,78.00
2019-04-14T12:06:05.467Z,77.08
2019-04-14T12:07:05.452Z,77.04
2019-04-14T12:08:05.439Z,76.73
2019-04-14T12:09:05.414Z,77.04
2019-04-14T12:10:05.411Z,76.93
2019-04-14T12:11:05.403Z,78.34
2019-04-14T12:12:05.387Z,75.84
2019-04-14T12:13:05.379Z,75.73
2019-04-14T12:14:05.367Z,75.42
2019-04-14T12:15:07.623Z,74.91
2019-04-14T12:16:05.340Z,74.98
2019-04-14T12:17:05.327Z,74.46
2019-04-14T12:18:05.320Z,75.29
2019-04-14T12:19:05.315Z,74.46
2019-04-14T12:20:05.295Z,73.44
2019-04-14T12:21:05.296Z,74.05
2019-04-14T12:22:08.399Z,73.64
2019-04-14T12:23:05.265Z,72.78
2019-04-14T12:24:05.249Z,72.78
2019-04-14T12:25:05.252Z,72.68
2019-04-14T12:26:06.047Z,72.27
2019-04-14T12:27:05.220Z,73.61
2019-04-14T12:28:05.215Z,73.30
2019-04-14T12:29:06.319Z,71.96
2019-04-14T12:30:06.422Z,72.06
2019-04-14T12:31:06.409Z,72.47
2019-04-14T12:32:06.281Z,71.86
2019-04-14T12:33:05.157Z,71.45
2019-04-14T12:34:05.140Z,71.75
2019-04-14T12:35:05.136Z,71.75
2019-04-14T12:36:05.124Z,71.45
2019-04-14T12:37:05.107Z,71.55
2019-04-14T12:38:05.094Z,71.24
2019-04-14T12:39:05.086Z,71.45
2019-04-14T12:40:05.089Z,71.24
2019-04-14T12:41:06.145Z,72.06
2019-04-14T12:42:05.058Z,71.34
2019-04-14T12:43:05.035Z,71.34
2019-04-14T12:44:05.029Z,71.14
2019-04-14T12:45:05.035Z,70.94
2019-04-14T12:46:06.359Z,71.14
2019-04-14T12:47:04.992Z,71.04
2019-04-14T12:48:04.982Z,70.62
2019-04-14T12:49:04.976Z,71.04
2019-04-14T12:50:04.964Z,70.62
2019-04-14T12:51:04.958Z,70.52
2019-04-14T12:52:04.955Z,71.24
2019-04-14T12:53:04.929Z,71.34
2019-04-14T12:54:04.918Z,71.66
2019-04-14T12:55:04.911Z,70.49
2019-04-14T12:56:04.894Z,70.79
2019-04-14T12:57:04.931Z,71.00
2019-04-14T12:58:04.870Z,70.90
2019-04-14T12:59:04.860Z,71.00
2019-04-14T13:00:04.846Z,70.70
2019-04-14T13:01:04.869Z,70.59
2019-04-14T13:02:04.825Z,70.70
2019-04-14T13:03:04.823Z,71.11
2019-04-14T13:04:04.810Z,70.39
2019-04-14T13:05:04.787Z,70.28
2019-04-14T13:06:04.786Z,70.28
2019-04-14T13:07:04.778Z,69.15
2019-04-14T13:08:04.769Z,69.67
2019-04-14T13:09:04.759Z,69.46
2019-04-14T13:10:04.749Z,69.98
2019-04-14T13:11:04.723Z,69.56
2019-04-14T13:12:04.720Z,69.56
2019-04-14T13:13:04.714Z,69.77
2019-04-14T13:14:04.694Z,69.98
2019-04-14T13:15:04.684Z,69.32